Sheyenne, North Dakota
Current Conditions -  °F | °C
As of 12:15 PM on Thursday 30 Oct 2014 (Local Time) from KDVL Reporting Station
Overcast Overcast  
Wind Chill: 20°   Ceiling: 1700
Heat Index: 32°   Visibility: 10mi
Dew Point: 19°   Wind: 21mph
Humidity: 60%   Direction: 20°NNE
Pressure: 30.35"   Gusts: 25mph
Location:  47.83°N, 99.12°W
Report Text: KDVL 301715Z AUTO 02018G22KT 10SM OVC017 00/M07 A3035 RMK AO1
Loading
Personal Weather Stations






























Interactive Weather Map
Tropical Storm Tracking
New forecast layout! Learn more

10-Day Weather Forecast

Advertisements
Track Severe Weather on mobile